createdAt,value
2019-05-19T00:00:15.643Z,49.20
2019-05-19T00:03:04.657Z,49.20
2019-05-19T00:05:53.192Z,49.30
2019-05-19T00:08:42.745Z,49.20
2019-05-19T00:11:30.957Z,49.20
2019-05-19T00:14:25.021Z,49.20
2019-05-19T00:17:13.327Z,49.20
2019-05-19T00:20:01.683Z,49.20
2019-05-19T00:22:49.859Z,49.10
2019-05-19T00:25:38.109Z,49.20
2019-05-19T00:28:26.666Z,49.10
2019-05-19T00:31:14.841Z,49.10
2019-05-19T00:34:03.618Z,49.20
2019-05-19T00:36:53.139Z,49.10
2019-05-19T00:39:53.330Z,49.10
2019-05-19T00:42:41.517Z,49.00
2019-05-19T00:45:30.107Z,49.10
2019-05-19T00:48:18.415Z,49.10
2019-05-19T00:51:06.537Z,49.10
2019-05-19T00:53:54.777Z,49.00
2019-05-19T00:56:43.644Z,49.00
2019-05-19T00:59:32.047Z,49.10
2019-05-19T01:02:20.318Z,49.10
2019-05-19T01:05:08.692Z,49.00
2019-05-19T01:07:57.060Z,49.10
2019-05-19T01:10:45.631Z,49.00
2019-05-19T01:13:33.816Z,49.10
2019-05-19T01:16:22.383Z,49.00
2019-05-19T01:19:10.671Z,49.00
2019-05-19T01:21:59.254Z,49.00
2019-05-19T01:24:47.536Z,49.00
2019-05-19T01:27:35.898Z,49.00
2019-05-19T01:30:24.111Z,49.00
2019-05-19T01:33:12.480Z,49.00
2019-05-19T01:36:01.111Z,49.00
2019-05-19T01:38:49.270Z,49.00
2019-05-19T01:41:37.567Z,49.00
2019-05-19T01:44:25.999Z,49.00
2019-05-19T01:47:14.177Z,49.00
2019-05-19T01:50:16.844Z,49.00
2019-05-19T01:52:52.454Z,49.00
2019-05-19T01:55:41.049Z,49.00
2019-05-19T01:58:29.179Z,49.00
2019-05-19T02:01:17.634Z,49.00
2019-05-19T02:04:05.984Z,49.00
2019-05-19T02:06:54.722Z,49.00
2019-05-19T02:09:43.205Z,49.00
2019-05-19T02:12:31.687Z,49.00
2019-05-19T02:15:20.359Z,49.10
2019-05-19T02:18:08.612Z,49.00
2019-05-19T02:20:56.603Z,49.30
2019-05-19T02:23:45.638Z,48.90
2019-05-19T02:26:34.792Z,49.00
2019-05-19T02:29:22.974Z,49.00
2019-05-19T02:32:11.543Z,48.90
2019-05-19T02:34:59.753Z,49.00
2019-05-19T02:37:47.904Z,48.90
2019-05-19T02:40:39.043Z,48.90
2019-05-19T02:43:27.884Z,48.90
2019-05-19T02:46:16.063Z,48.90
2019-05-19T02:49:04.303Z,49.00
2019-05-19T02:51:52.823Z,48.90
2019-05-19T02:54:41.320Z,48.90
2019-05-19T02:57:29.784Z,48.90
2019-05-19T03:00:18.078Z,48.90
2019-05-19T03:03:09.014Z,48.80
2019-05-19T03:05:57.238Z,48.80
2019-05-19T03:08:45.871Z,48.80
2019-05-19T03:11:43.038Z,48.80
2019-05-19T03:14:31.368Z,48.80
2019-05-19T03:17:19.781Z,48.90
2019-05-19T03:20:08.317Z,48.80
2019-05-19T03:22:56.853Z,48.80
2019-05-19T03:25:45.067Z,48.80
2019-05-19T03:28:33.380Z,48.90
2019-05-19T03:31:23.493Z,48.90
2019-05-19T03:34:12.308Z,48.90
2019-05-19T03:37:00.835Z,48.80
2019-05-19T03:39:49.293Z,48.80
2019-05-19T03:42:37.675Z,48.80
2019-05-19T03:45:26.031Z,48.80
2019-05-19T03:48:14.222Z,48.80
2019-05-19T03:51:03.072Z,49.50
2019-05-19T03:53:51.569Z,48.80
2019-05-19T03:56:39.992Z,48.80
2019-05-19T03:59:28.216Z,48.80
2019-05-19T04:02:17.889Z,48.80
2019-05-19T04:05:08.444Z,48.90
2019-05-19T04:07:56.636Z,48.90
2019-05-19T04:10:45.168Z,48.80
2019-05-19T04:13:33.501Z,48.80
2019-05-19T04:16:21.624Z,48.80
2019-05-19T04:19:09.976Z,48.90
2019-05-19T04:21:58.062Z,48.90
2019-05-19T04:24:46.835Z,48.90
2019-05-19T04:27:35.133Z,48.90
2019-05-19T04:30:23.596Z,49.10
2019-05-19T04:33:11.893Z,49.60
2019-05-19T04:36:00.446Z,49.50
2019-05-19T04:38:49.104Z,49.30
2019-05-19T04:41:40.222Z,49.10
2019-05-19T04:44:28.060Z,49.10
2019-05-19T04:47:16.281Z,49.10
2019-05-19T04:50:06.911Z,49.10
2019-05-19T04:52:55.320Z,49.10
2019-05-19T04:55:43.631Z,49.10
2019-05-19T04:58:31.864Z,49.10
2019-05-19T05:01:21.485Z,49.10
2019-05-19T05:04:09.732Z,49.10
2019-05-19T05:06:58.482Z,49.10
2019-05-19T05:09:46.962Z,49.10
2019-05-19T05:12:35.591Z,49.10
2019-05-19T05:15:23.808Z,49.10
2019-05-19T05:18:12.325Z,49.10
2019-05-19T05:21:00.860Z,49.10
2019-05-19T05:23:49.032Z,49.10
2019-05-19T05:26:37.519Z,49.10
2019-05-19T05:29:25.864Z,49.10
2019-05-19T05:32:14.466Z,49.10
2019-05-19T05:35:02.670Z,49.10
2019-05-19T05:37:51.162Z,49.10
2019-05-19T05:40:39.782Z,49.10
2019-05-19T05:43:28.090Z,49.20
2019-05-19T05:46:16.474Z,49.10
2019-05-19T05:49:06.262Z,49.20
2019-05-19T05:51:54.479Z,49.10
2019-05-19T05:54:42.777Z,49.20
2019-05-19T05:57:31.358Z,49.20
2019-05-19T06:00:19.757Z,49.10
2019-05-19T06:03:08.207Z,49.20
2019-05-19T06:05:56.676Z,49.10
2019-05-19T06:08:45.067Z,49.10
2019-05-19T06:11:33.743Z,49.20
2019-05-19T06:14:21.931Z,49.20
2019-05-19T06:17:10.434Z,49.20
2019-05-19T06:20:00.088Z,49.30
2019-05-19T06:22:56.615Z,49.30
2019-05-19T06:25:40.070Z,49.30
2019-05-19T06:28:28.806Z,49.30
2019-05-19T06:31:17.159Z,49.30
2019-05-19T06:34:05.363Z,50.00
2019-05-19T06:36:55.166Z,50.00
2019-05-19T06:39:43.694Z,49.90
2019-05-19T06:42:33.310Z,49.90
2019-05-19T06:45:21.910Z,50.00
2019-05-19T06:48:10.105Z,49.80
2019-05-19T06:50:58.647Z,50.10
2019-05-19T06:53:47.108Z,50.20
2019-05-19T06:56:35.792Z,50.20
2019-05-19T06:59:23.951Z,50.00
2019-05-19T07:02:12.354Z,50.00
2019-05-19T07:05:00.692Z,49.70
2019-05-19T07:07:49.015Z,49.30
2019-05-19T07:10:37.219Z,49.50
2019-05-19T07:13:25.520Z,49.70
2019-05-19T07:16:13.751Z,50.10
2019-05-19T07:19:02.255Z,49.90
2019-05-19T07:21:50.854Z,49.60
2019-05-19T07:24:40.378Z,50.20
2019-05-19T07:27:28.738Z,50.00
2019-05-19T07:30:17.568Z,50.10
2019-05-19T07:33:06.091Z,49.90
2019-05-19T07:35:54.514Z,49.70
2019-05-19T07:38:42.558Z,49.90
2019-05-19T07:41:30.800Z,50.00
2019-05-19T07:44:19.199Z,49.70
2019-05-19T07:47:07.471Z,48.90
2019-05-19T07:49:55.626Z,48.70
2019-05-19T07:52:43.847Z,47.90
2019-05-19T07:55:32.079Z,47.60
2019-05-19T07:58:20.734Z,46.00
2019-05-19T08:01:08.987Z,45.50
2019-05-19T08:03:57.131Z,45.30
2019-05-19T08:06:45.394Z,45.00
2019-05-19T08:09:34.400Z,45.20
2019-05-19T08:12:23.181Z,44.40
2019-05-19T08:15:11.684Z,44.90
2019-05-19T08:17:59.938Z,45.20
2019-05-19T08:20:48.167Z,45.00
2019-05-19T08:23:36.466Z,45.10
2019-05-19T08:26:24.748Z,45.30
2019-05-19T08:29:12.922Z,44.20
2019-05-19T08:32:01.221Z,43.80
2019-05-19T08:34:49.503Z,43.70
2019-05-19T08:37:37.870Z,43.70
2019-05-19T08:40:26.339Z,43.90
2019-05-19T08:43:27.186Z,43.80
2019-05-19T08:46:15.475Z,43.80
2019-05-19T08:49:07.527Z,43.70
2019-05-19T08:51:56.099Z,43.80
2019-05-19T08:54:44.269Z,44.60
2019-05-19T08:57:32.518Z,44.90
2019-05-19T09:00:21.224Z,45.00
2019-05-19T09:03:09.930Z,45.00
2019-05-19T09:05:58.341Z,45.40
2019-05-19T09:08:46.639Z,45.50
2019-05-19T09:11:35.207Z,46.10
2019-05-19T09:14:23.724Z,46.00
2019-05-19T09:17:12.067Z,46.20
2019-05-19T09:20:00.235Z,46.40
2019-05-19T09:22:48.735Z,46.00
2019-05-19T09:25:38.137Z,45.10
2019-05-19T09:28:26.378Z,45.20
2019-05-19T09:31:14.983Z,45.50
2019-05-19T09:34:03.177Z,45.70
2019-05-19T09:36:51.334Z,44.90
2019-05-19T09:39:41.091Z,44.60
2019-05-19T10:01:43.201Z,49.10
